Time;durP1;ratioP1;P1;durP2;ratioP2;P2;SDS_P1;SDS_P2;PMS_P1;PMS_P2;Temp;Humidity;BMP_temperature;BMP_pressure;BME280_temperature;BME280_humidity;BME280_pressure;Samples;Min_cycle;Max_cycle;Signal;HPM_P1;HPM_P2
2024/04/05 00:01:38;;;;;;;;;;;;;;;14.63;48.62;100333.19;4941631;27;98080;-71
2024/04/05 00:04:06;;;;;;;;;;;;;;;14.63;48.40;100331.28;4952381;27;98160;-71
2024/04/05 00:06:33;;;;;;;;;;;;;;;14.61;48.54;100335.38;4939100;28;98299;-71
2024/04/05 00:08:59;;;;;;;;;;;;;;;14.61;48.59;100336.19;4920472;27;98619;-70
2024/04/05 00:11:25;;;;;;;;;;;;;;;14.60;48.75;100336.50;4939257;27;97989;-71
2024/04/05 00:13:52;;;;;;;;;;;;;;;14.60;48.75;100341.94;4950984;27;99384;-71
2024/04/05 00:16:19;;;;;;;;;;;;;;;14.59;48.69;100338.41;4957127;27;98220;-71
2024/04/05 00:18:45;;;;;;;;;;;;;;;14.58;48.44;100342.25;4957259;27;99693;-71
2024/04/05 00:21:11;;;;;;;;;;;;;;;14.58;48.34;100338.69;4935929;27;98588;-72
2024/04/05 00:23:37;;;;;;;;;;;;;;;14.57;48.50;100350.66;4941937;27;98050;-72
2024/04/05 00:26:05;;;;;;;;;;;;;;;14.57;48.82;100356.06;4918200;27;99620;-72
2024/04/05 00:28:32;;;;;;;;;;;;;;;14.55;48.75;100348.25;4939240;27;98165;-72
2024/04/05 00:30:58;;;;;;;;;;;;;;;14.55;48.73;100348.25;4924615;27;98012;-72
2024/04/05 00:33:26;;;;;;;;;;;;;;;14.53;48.81;100357.78;4940216;27;98495;-72
2024/04/05 00:35:55;;;;;;;;;;;;;;;14.54;48.43;100362.09;4942845;28;98204;-72
2024/04/05 00:38:23;;;;;;;;;;;;;;;14.53;48.51;100355.06;4954321;27;98398;-72
2024/04/05 00:40:50;;;;;;;;;;;;;;;14.51;48.75;100358.06;4925080;28;98096;-72
2024/04/05 00:43:16;;;;;;;;;;;;;;;14.52;48.42;100358.88;4936667;27;98259;-72
2024/04/05 00:45:46;;;;;;;;;;;;;;;14.51;48.67;100360.78;4940615;28;99393;-72
2024/04/05 00:48:14;;;;;;;;;;;;;;;14.51;48.66;100358.06;4948978;27;98393;-72
2024/04/05 00:50:40;;;;;;;;;;;;;;;14.51;48.38;100362.69;4937394;28;99799;-71
2024/04/05 00:53:08;;;;;;;;;;;;;;;14.49;48.57;100361.06;4956385;27;98398;-73
2024/04/05 00:55:36;;;;;;;;;;;;;;;14.49;48.56;100360.25;4942177;28;99016;-72
2024/04/05 00:58:03;;;;;;;;;;;;;;;14.48;48.64;100355.91;4941821;27;100107;-72
2024/04/05 01:00:30;;;;;;;;;;;;;;;14.48;48.45;100359.44;4923192;28;98621;-72
2024/04/05 01:02:58;;;;;;;;;;;;;;;14.47;48.66;100355.13;4918318;28;99345;-72
2024/04/05 01:05:25;;;;;;;;;;;;;;;14.47;48.62;100362.44;4939621;27;98081;-72
2024/04/05 01:07:52;;;;;;;;;;;;;;;14.47;48.56;100365.16;4941010;28;98348;-72
2024/04/05 01:10:20;;;;;;;;;;;;;;;14.46;48.58;100363.53;4915308;27;97918;-72
2024/04/05 01:12:56;;;;;;;;;;;;;;;14.44;48.78;100361.13;4940521;28;98269;-72
2024/04/05 01:15:25;;;;;;;;;;;;;;;14.44;48.69;100361.13;4936123;27;99420;-72
2024/04/05 01:17:51;;;;;;;;;;;;;;;14.45;48.41;100364.63;4936235;28;98728;-71
2024/04/05 01:20:20;;;;;;;;;;;;;;;14.44;48.45;100371.16;4941736;27;99658;-72
2024/04/05 01:22:53;;;;;;;;;;;;;;;14.44;48.84;100371.16;4933674;28;98239;-72
2024/04/05 01:25:23;;;;;;;;;;;;;;;14.42;48.60;100371.47;4967248;27;98787;-72
2024/04/05 01:27:49;;;;;;;;;;;;;;;14.41;48.51;100377.97;4956800;28;98147;-72
2024/04/05 01:30:18;;;;;;;;;;;;;;;14.41;48.56;100372.56;4918406;27;98305;-72
2024/04/05 01:32:55;;;;;;;;;;;;;;;14.41;48.72;100374.47;4941334;28;98324;-71
2024/04/05 01:35:24;;;;;;;;;;;;;;;14.40;48.59;100378.28;4956051;27;99415;-73
2024/04/05 01:37:52;;;;;;;;;;;;;;;14.39;48.55;100380.19;4939312;28;98723;-72
2024/04/05 01:40:19;;;;;;;;;;;;;;;14.37;48.83;100371.53;4936124;27;98228;-71
2024/04/05 01:42:45;;;;;;;;;;;;;;;14.39;48.71;100385.63;4937917;27;98126;-71
2024/04/05 01:45:12;;;;;;;;;;;;;;;14.38;48.46;100377.75;4941485;27;98218;-73
2024/04/05 01:47:39;;;;;;;;;;;;;;;14.37;48.91;100379.66;4935901;28;99872;-72
2024/04/05 01:50:06;;;;;;;;;;;;;;;14.37;48.86;100371.53;4941921;27;99901;-73
2024/04/05 01:52:33;;;;;;;;;;;;;;;14.37;48.56;100379.66;4950637;27;98336;-73
2024/04/05 01:55:00;;;;;;;;;;;;;;;14.37;48.58;100373.44;4940537;27;98188;-72
2024/04/05 01:57:26;;;;;;;;;;;;;;;14.38;48.51;100377.75;4966665;27;99341;-72
2024/04/05 01:59:53;;;;;;;;;;;;;;;14.36;48.95;100379.97;4942047;27;98089;-73
2024/04/05 02:02:20;;;;;;;;;;;;;;;14.36;48.69;100375.34;4934368;27;98296;-71
2024/04/05 02:04:49;;;;;;;;;;;;;;;14.36;48.89;100378.06;4951104;28;98243;-71
2024/04/05 02:07:16;;;;;;;;;;;;;;;14.35;48.87;100371.03;4939104;27;98428;-71
2024/04/05 02:09:46;;;;;;;;;;;;;;;14.35;48.59;100376.47;4933607;28;98147;-72
2024/04/05 02:12:12;;;;;;;;;;;;;;;14.35;48.44;100386.50;4938165;27;98083;-72
2024/04/05 02:14:38;;;;;;;;;;;;;;;14.35;48.68;100381.88;4932456;28;98355;-71
2024/04/05 02:17:06;;;;;;;;;;;;;;;14.35;48.79;100379.19;4936537;27;98347;-72
2024/04/05 02:19:33;;;;;;;;;;;;;;;14.34;48.64;100374.81;4934477;27;98338;-72
2024/04/05 02:21:59;;;;;;;;;;;;;;;14.35;48.65;100378.38;4920409;28;98284;-71
2024/04/05 02:24:26;;;;;;;;;;;;;;;14.35;48.62;100381.88;4944501;27;97994;-73
2024/04/05 02:26:53;;;;;;;;;;;;;;;14.35;48.90;100375.66;4923449;28;98493;-71
2024/04/05 02:29:20;;;;;;;;;;;;;;;14.35;48.79;100386.50;4935595;27;98483;-72
2024/04/05 02:31:46;;;;;;;;;;;;;;;14.35;48.55;100390.03;4935684;27;98796;-71
2024/04/05 02:34:13;;;;;;;;;;;;;;;14.34;48.59;100385.66;4913685;28;98127;-72
2024/04/05 02:36:39;;;;;;;;;;;;;;;14.34;48.49;100390.28;4934761;27;98407;-71
2024/04/05 02:39:06;;;;;;;;;;;;;;;14.34;48.60;100390.28;4937616;27;98512;-71
2024/04/05 02:41:33;;;;;;;;;;;;;;;14.33;48.49;100394.91;4926093;27;98424;-72
2024/04/05 02:44:00;;;;;;;;;;;;;;;14.33;48.80;100397.63;4940399;28;98707;-71
2024/04/05 02:46:27;;;;;;;;;;;;;;;14.32;48.68;100398.72;4935252;27;98559;-71
2024/04/05 02:48:57;;;;;;;;;;;;;;;14.33;48.54;100394.91;4924354;28;99196;-73
2024/04/05 02:51:24;;;;;;;;;;;;;;;14.32;48.62;100398.72;4963479;27;98479;-71
2024/04/05 02:53:57;;;;;;;;;;;;;;;14.31;48.56;100405.25;4936991;27;98322;-72
2024/04/05 02:56:31;;;;;;;;;;;;;;;14.29;48.84;100404.75;4936029;27;98223;-72
2024/04/05 02:58:59;;;;;;;;;;;;;;;14.28;48.69;100405.84;4957052;27;98572;-73
2024/04/05 03:01:25;;;;;;;;;;;;;;;14.28;48.47;100418.59;4939134;27;98302;-71
2024/04/05 03:03:52;;;;;;;;;;;;;;;14.26;48.80;100418.88;4940734;28;98552;-71
2024/04/05 03:06:19;;;;;;;;;;;;;;;14.25;48.66;100418.06;4941626;27;98882;-73
2024/04/05 03:08:46;;;;;;;;;;;;;;;14.22;48.49;100415.94;4937526;27;100020;-73
2024/04/05 03:11:12;;;;;;;;;;;;;;;14.22;48.91;100426.78;4938848;27;98216;-73
2024/04/05 03:13:42;;;;;;;;;;;;;;;14.20;48.59;100423.56;4936755;27;98054;-72
2024/04/05 03:16:09;;;;;;;;;;;;;;;14.20;48.54;100420.06;4939321;27;99512;-73
2024/04/05 03:18:36;;;;;;;;;;;;;;;14.18;48.78;100425.75;4919032;27;98212;-71
2024/04/05 03:21:02;;;;;;;;;;;;;;;14.16;49.02;100425.25;4944114;28;98208;-71
2024/04/05 03:23:29;;;;;;;;;;;;;;;14.15;48.66;100425.56;4941978;27;98645;-73
2024/04/05 03:25:56;;;;;;;;;;;;;;;14.13;48.83;100433.97;4922215;27;98015;-71
2024/04/05 03:28:24;;;;;;;;;;;;;;;14.12;48.65;100426.94;4938109;27;98423;-73
2024/04/05 03:30:52;;;;;;;;;;;;;;;14.10;49.09;100429.13;4922787;27;98475;-72
2024/04/05 03:33:18;;;;;;;;;;;;;;;14.09;48.68;100432.94;4936694;27;98333;-71
2024/04/05 03:35:44;;;;;;;;;;;;;;;14.07;48.77;100435.16;4937596;28;98601;-71
2024/04/05 03:38:11;;;;;;;;;;;;;;;14.06;48.69;100436.22;4940987;27;99446;-72
2024/04/05 03:40:39;;;;;;;;;;;;;;;14.05;48.94;100437.31;4938584;28;98671;-71
2024/04/05 03:43:07;;;;;;;;;;;;;;;14.04;48.76;100441.13;4940248;28;100213;-73
2024/04/05 03:45:34;;;;;;;;;;;;;;;14.03;48.71;100438.69;4932870;27;98170;-73
2024/04/05 03:48:00;;;;;;;;;;;;;;;14.01;48.62;100452.56;4953194;27;98659;-71
2024/04/05 03:50:26;;;;;;;;;;;;;;;14.00;48.92;100450.94;4941359;27;98118;-73
2024/04/05 03:52:54;;;;;;;;;;;;;;;13.98;48.61;100445.81;4922789;27;98336;-73
2024/04/05 03:55:20;;;;;;;;;;;;;;;13.98;48.86;100455.84;4939377;27;98138;-72
2024/04/05 03:57:51;;;;;;;;;;;;;;;13.95;48.79;100451.00;4936514;27;98152;-73
2024/04/05 04:00:18;;;;;;;;;;;;;;;13.94;48.69;100458.31;4936839;27;98519;-73
2024/04/05 04:02:45;;;;;;;;;;;;;;;13.93;48.72;100453.19;4941455;27;99029;-71
2024/04/05 04:05:14;;;;;;;;;;;;;;;13.92;49.13;100448.88;4937240;27;98204;-73
2024/04/05 04:07:40;;;;;;;;;;;;;;;13.90;48.71;100453.78;4934588;27;98304;-72
2024/04/05 04:10:07;;;;;;;;;;;;;;;13.89;48.86;100461.09;4942340;27;99560;-73
2024/04/05 04:12:34;;;;;;;;;;;;;;;13.88;48.85;100464.91;4937441;27;98644;-73
2024/04/05 04:15:00;;;;;;;;;;;;;;;13.87;49.13;100459.75;4913766;27;100676;-71
2024/04/05 04:17:26;;;;;;;;;;;;;;;13.85;48.96;100470.91;4968085;27;98065;-73
2024/04/05 04:19:52;;;;;;;;;;;;;;;13.84;48.81;100471.19;4920649;27;98845;-73
2024/04/05 04:22:19;;;;;;;;;;;;;;;13.84;48.93;100473.91;4931539;28;99559;-72
2024/04/05 04:24:46;;;;;;;;;;;;;;;13.84;48.79;100471.19;4917111;27;98422;-72
2024/04/05 04:27:12;;;;;;;;;;;;;;;13.82;48.72;100482.31;4935347;27;99808;-71
2024/04/05 04:29:40;;;;;;;;;;;;;;;13.83;49.04;100483.13;4939821;27;98095;-72
2024/04/05 04:32:06;;;;;;;;;;;;;;;13.82;48.98;100492.34;4958386;28;98123;-71
2024/04/05 04:34:32;;;;;;;;;;;;;;;13.81;49.10;100482.59;4942101;28;98205;-71
2024/04/05 04:36:58;;;;;;;;;;;;;;;13.81;49.08;100486.13;4942930;27;98796;-73
2024/04/05 04:39:25;;;;;;;;;;;;;;;13.81;48.90;100490.72;4919939;27;98605;-71
2024/04/05 04:41:51;;;;;;;;;;;;;;;13.82;48.92;100486.94;4936670;28;98904;-71
2024/04/05 04:44:17;;;;;;;;;;;;;;;13.82;48.99;100498.56;4919352;28;98354;-73
2024/04/05 04:46:44;;;;;;;;;;;;;;;13.84;48.97;100501.00;4933122;27;98127;-71
2024/04/05 04:49:10;;;;;;;;;;;;;;;13.85;49.05;100497.19;4936243;27;97892;-73
2024/04/05 04:51:36;;;;;;;;;;;;;;;13.87;48.63;100493.09;4940125;27;98518;-70
2024/04/05 04:54:04;;;;;;;;;;;;;;;13.89;48.92;100499.03;4926928;28;98352;-73
2024/04/05 04:56:31;;;;;;;;;;;;;;;13.92;48.95;100501.16;4938333;28;100818;-70
2024/04/05 04:58:58;;;;;;;;;;;;;;;13.94;48.55;100504.38;4936280;28;98447;-72
2024/04/05 05:01:25;;;;;;;;;;;;;;;13.96;48.89;100502.22;4919233;28;97982;-73
2024/04/05 05:03:52;;;;;;;;;;;;;;;14.03;48.59;100503.75;4922054;28;101479;-72
2024/04/05 05:06:18;;;;;;;;;;;;;;;14.05;48.38;100507.00;4939325;27;98379;-72
2024/04/05 05:08:45;;;;;;;;;;;;;;;14.09;48.67;100505.31;4922236;28;97967;-73
2024/04/05 05:11:12;;;;;;;;;;;;;;;14.13;48.72;100501.72;4918717;27;99850;-73
2024/04/05 05:13:38;;;;;;;;;;;;;;;14.17;48.41;100502.75;4948020;28;98766;-72
2024/04/05 05:16:04;;;;;;;;;;;;;;;14.24;48.46;100491.56;4950420;27;98730;-71
2024/04/05 05:18:30;;;;;;;;;;;;;;;14.28;48.39;100497.22;4917667;27;98303;-71
2024/04/05 05:20:57;;;;;;;;;;;;;;;14.32;48.65;100498.25;4932674;28;99623;-73
2024/04/05 05:23:26;;;;;;;;;;;;;;;14.37;48.43;100495.47;4925541;27;98700;-73
2024/04/05 05:25:57;;;;;;;;;;;;;;;14.42;48.62;100487.25;4924547;28;98205;-72
2024/04/05 05:28:23;;;;;;;;;;;;;;;14.45;48.34;100494.81;4932484;27;98376;-72
2024/04/05 05:30:50;;;;;;;;;;;;;;;14.48;48.66;100497.75;4926979;28;99294;-71
2024/04/05 05:33:17;;;;;;;;;;;;;;;14.49;48.26;100496.66;4931049;27;98259;-71
2024/04/05 05:35:44;;;;;;;;;;;;;;;14.50;48.40;100502.91;4910212;28;98826;-73
2024/04/05 05:38:10;;;;;;;;;;;;;;;14.47;48.59;100506.19;4930944;27;99952;-71
2024/04/05 05:40:37;;;;;;;;;;;;;;;14.45;48.46;100514.59;4933666;27;98417;-73
2024/04/05 05:43:04;;;;;;;;;;;;;;;14.44;48.72;100513.00;4933263;27;98409;-71
2024/04/05 05:45:30;;;;;;;;;;;;;;;14.44;48.47;100514.91;4934952;27;100258;-72
2024/04/05 05:47:56;;;;;;;;;;;;;;;14.43;48.44;100511.38;4916506;28;99541;-72
2024/04/05 05:50:23;;;;;;;;;;;;;;;14.47;48.49;100517.84;4930917;27;99704;-71
2024/04/05 05:52:50;;;;;;;;;;;;;;;14.52;48.40;100518.91;4914417;27;99827;-73
2024/04/05 05:55:16;;;;;;;;;;;;;;;14.57;48.56;100502.53;4935248;27;98168;-73
2024/04/05 05:57:42;;;;;;;;;;;;;;;14.64;48.34;100511.94;4954006;28;105243;-71
2024/04/05 06:00:10;;;;;;;;;;;;;;;14.71;48.48;100506.94;4947012;27;100146;-73
2024/04/05 06:02:37;;;;;;;;;;;;;;;14.81;48.48;100495.13;4938293;27;98351;-73
2024/04/05 06:05:07;;;;;;;;;;;;;;;14.91;48.32;100503.13;4937325;27;98440;-71
2024/04/05 06:07:33;;;;;;;;;;;;;;;15.01;48.09;100498.63;4931821;27;100348;-71
2024/04/05 06:10:01;;;;;;;;;;;;;;;15.13;48.13;100507.94;4938857;27;100352;-72
2024/04/05 06:12:30;;;;;;;;;;;;;;;15.24;48.01;100508.56;4948692;27;100472;-73
2024/04/05 06:14:59;;;;;;;;;;;;;;;15.36;47.89;100510.81;4948407;27;100102;-73
2024/04/05 06:17:25;;;;;;;;;;;;;;;15.52;47.76;100514.06;4939097;27;98995;-71
2024/04/05 06:19:55;;;;;;;;;;;;;;;15.71;47.78;100515.63;4944859;27;97993;-71
2024/04/05 06:22:21;;;;;;;;;;;;;;;16.02;47.58;100511.53;4939561;27;100235;-71
2024/04/05 06:24:58;;;;;;;;;;;;;;;16.23;47.33;100517.34;4940937;27;98533;-73
2024/04/05 06:27:25;;;;;;;;;;;;;;;16.28;47.61;100520.78;4940644;27;98929;-71
2024/04/05 06:29:54;;;;;;;;;;;;;;;16.42;47.38;100531.63;4957458;27;99543;-73
2024/04/05 06:32:21;;;;;;;;;;;;;;;16.56;47.35;100528.91;4932309;27;98426;-71
2024/04/05 06:34:48;;;;;;;;;;;;;;;16.66;47.37;100534.09;4934076;27;99506;-72
2024/04/05 06:37:14;;;;;;;;;;;;;;;16.77;47.35;100534.72;4922177;27;98330;-73
2024/04/05 06:39:40;;;;;;;;;;;;;;;16.98;47.39;100541.31;4934149;27;99367;-71
2024/04/05 06:42:10;;;;;;;;;;;;;;;17.14;47.08;100536.31;4912338;28;98317;-72
2024/04/05 06:44:39;;;;;;;;;;;;;;;17.16;47.40;100532.16;4914733;28;99436;-71
2024/04/05 06:47:09;;;;;;;;;;;;;;;17.40;47.21;100533.75;4940600;27;99255;-73
2024/04/05 06:49:37;;;;;;;;;;;;;;;17.86;46.72;100532.59;4931374;27;99222;-72
2024/04/05 06:52:05;;;;;;;;;;;;;;;17.88;46.93;100542.06;4932614;27;98292;-73
2024/04/05 06:54:32;;;;;;;;;;;;;;;18.03;46.80;100548.19;4921471;27;98144;-73
2024/04/05 06:57:00;;;;;;;;;;;;;;;18.09;47.14;100538.78;4920465;28;101205;-72
2024/04/05 06:59:32;;;;;;;;;;;;;;;18.25;46.95;100536.41;4920686;27;98777;-73
2024/04/05 07:01:58;;;;;;;;;;;;;;;18.35;46.95;100536.09;4937122;27;98828;-72
2024/04/05 07:04:26;;;;;;;;;;;;;;;18.49;47.05;100535.97;4916424;27;98490;-72
2024/04/05 07:06:54;;;;;;;;;;;;;;;18.63;46.90;100540.19;4917554;27;98218;-72
2024/04/05 07:09:21;;;;;;;;;;;;;;;18.86;46.74;100540.88;4953213;27;98163;-72
2024/04/05 07:11:48;;;;;;;;;;;;;;;19.09;46.62;100544.22;4951466;27;98360;-72
2024/04/05 07:14:16;;;;;;;;;;;;;;;19.31;46.41;100540.50;4934866;27;99759;-72
2024/04/05 07:16:43;;;;;;;;;;;;;;;19.40;46.63;100545.16;4937561;27;98255;-72
2024/04/05 07:19:09;;;;;;;;;;;;;;;19.73;46.21;100551.72;4931213;27;98286;-72
2024/04/05 07:21:37;;;;;;;;;;;;;;;19.79;46.30;100549.59;4936667;28;99972;-73
2024/04/05 07:24:05;;;;;;;;;;;;;;;20.17;46.18;100552.34;4930685;28;99356;-73
2024/04/05 07:26:35;;;;;;;;;;;;;;;19.90;46.55;100556.31;4930016;28;98434;-73
2024/04/05 07:29:02;;;;;;;;;;;;;;;19.73;46.99;100568.13;4930085;28;98440;-73
2024/04/05 07:31:33;;;;;;;;;;;;;;;19.58;47.17;100563.94;4935212;28;98280;-72
2024/04/05 07:34:00;;;;;;;;;;;;;;;19.48;47.33;100568.94;4922536;27;98172;-72
2024/04/05 07:36:29;;;;;;;;;;;;;;;19.40;47.32;100573.28;4932628;27;98101;-73
2024/04/05 07:38:55;;;;;;;;;;;;;;;19.25;47.42;100571.84;4934176;27;98617;-73
2024/04/05 07:41:22;;;;;;;;;;;;;;;19.11;47.66;100571.25;4929694;28;99777;-72
2024/04/05 07:43:50;;;;;;;;;;;;;;;19.02;47.74;100578.59;4940839;27;98399;-72
2024/04/05 07:46:16;;;;;;;;;;;;;;;18.91;47.86;100577.34;4936951;27;99333;-73
2024/04/05 07:48:43;;;;;;;;;;;;;;;18.81;47.78;100579.25;4937917;27;98035;-71
2024/04/05 07:51:13;;;;;;;;;;;;;;;18.77;47.94;100586.47;4933690;28;100034;-72
2024/04/05 07:53:42;;;;;;;;;;;;;;;18.74;48.02;100575.38;4930924;28;101325;-71
2024/04/05 07:56:08;;;;;;;;;;;;;;;18.70;47.84;100588.03;4904915;28;98568;-72
2024/04/05 07:58:34;;;;;;;;;;;;;;;18.61;47.90;100585.28;4922252;28;102970;-72
2024/04/05 08:01:04;;;;;;;;;;;;;;;18.51;48.06;100583.69;4924682;28;99078;-73
2024/04/05 08:03:31;;;;;;;;;;;;;;;18.44;48.15;100582.53;4913715;27;98591;-73
2024/04/05 08:05:58;;;;;;;;;;;;;;;18.42;48.04;100582.84;4938273;27;98283;-72
2024/04/05 08:08:25;;;;;;;;;;;;;;;18.43;48.09;100587.19;4936550;27;98868;-72
2024/04/05 08:11:01;;;;;;;;;;;;;;;18.38;47.94;100587.31;4923557;27;101297;-73
2024/04/05 08:13:28;;;;;;;;;;;;;;;18.37;48.20;100591.97;4935370;27;98145;-71
2024/04/05 08:15:54;;;;;;;;;;;;;;;18.42;47.99;100596.47;4942725;28;98610;-73
2024/04/05 08:18:21;;;;;;;;;;;;;;;18.53;47.95;100581.41;4930170;28;98660;-72
2024/04/05 08:20:48;;;;;;;;;;;;;;;18.62;47.89;100584.16;4938778;28;98755;-73
2024/04/05 08:23:15;;;;;;;;;;;;;;;18.61;47.75;100593.47;4952551;27;99225;-71
2024/04/05 08:25:44;;;;;;;;;;;;;;;18.60;47.81;100583.69;4936944;27;98067;-73
2024/04/05 08:28:12;;;;;;;;;;;;;;;18.60;47.93;100583.69;4945973;27;98287;-71
2024/04/05 08:30:38;;;;;;;;;;;;;;;18.59;47.91;100585.63;4936757;27;98342;-71
2024/04/05 08:33:08;;;;;;;;;;;;;;;18.53;48.13;100591.53;4932656;27;98798;-73
2024/04/05 08:35:36;;;;;;;;;;;;;;;18.51;48.19;100578.22;4923031;27;98569;-71
2024/04/05 08:38:02;;;;;;;;;;;;;;;18.48;48.00;100589.75;4921938;27;98438;-71
2024/04/05 08:40:29;;;;;;;;;;;;;;;18.46;48.00;100586.53;4947777;27;100494;-72
2024/04/05 08:42:59;;;;;;;;;;;;;;;18.53;47.96;100586.88;4933863;28;98438;-71
2024/04/05 08:45:26;;;;;;;;;;;;;;;18.68;47.75;100585.63;4919318;27;98102;-72
2024/04/05 08:47:55;;;;;;;;;;;;;;;18.74;47.70;100589.03;4934824;28;98269;-73
2024/04/05 08:50:22;;;;;;;;;;;;;;;18.74;47.84;100581.63;4933614;27;99873;-72
2024/04/05 08:52:48;;;;;;;;;;;;;;;18.73;48.00;100580.03;4915613;28;98191;-71
2024/04/05 08:55:19;;;;;;;;;;;;;;;18.71;48.00;100582.31;4931529;27;98398;-72
2024/04/05 08:57:46;;;;;;;;;;;;;;;18.77;47.88;100582.94;4931333;28;98915;-72
2024/04/05 09:00:14;;;;;;;;;;;;;;;18.96;47.81;100582.63;4930557;27;102780;-72
2024/04/05 09:02:41;;;;;;;;;;;;;;;19.22;47.31;100572.53;4912404;27;98662;-72
2024/04/05 09:05:09;;;;;;;;;;;;;;;19.63;46.97;100556.72;4937316;28;98126;-73
2024/04/05 09:07:36;;;;;;;;;;;;;;;20.29;46.33;100552.44;4951891;28;99888;-72
2024/04/05 09:10:16;;;;;;;;;;;;;;;20.65;46.35;100562.06;4956618;28;98249;-71
2024/04/05 09:12:49;;;;;;;;;;;;;;;21.05;46.04;100569.81;4938336;27;98271;-71
2024/04/05 09:15:22;;;;;;;;;;;;;;;21.43;45.71;100555.94;4963533;27;98117;-72
2024/04/05 09:17:51;;;;;;;;;;;;;;;23.37;44.16;100557.31;4932006;28;102866;-73
2024/04/05 09:20:24;;;;;;;;;;;;;;;24.96;42.93;100554.09;4929513;27;98205;-73
2024/04/05 09:23:03;;;;;;;;;;;;;;;26.10;42.50;100558.22;4935420;28;100137;-72
2024/04/05 09:25:31;;;;;;;;;;;;;;;27.32;42.01;100569.00;4892008;27;100071;-72
2024/04/05 09:28:07;;;;;;;;;;;;;;;28.64;41.88;100577.66;4924628;27;98690;-71
2024/04/05 09:30:34;;;;;;;;;;;;;;;29.90;41.29;100578.88;4931702;27;99127;-71
2024/04/05 09:33:01;;;;;;;;;;;;;;;30.54;41.08;100584.41;4928690;27;98435;-71
2024/04/05 09:35:33;;;;;;;;;;;;;;;31.03;41.13;100575.13;4933442;27;98145;-72
2024/04/05 09:37:59;;;;;;;;;;;;;;;31.51;41.09;100566.13;4959276;27;98464;-71
2024/04/05 09:40:26;;;;;;;;;;;;;;;31.75;41.22;100564.41;4933653;27;102945;-71
2024/04/05 09:42:55;;;;;;;;;;;;;;;31.37;41.81;100557.91;4936326;27;100581;-71
2024/04/05 09:45:24;;;;;;;;;;;;;;;30.63;42.98;100559.75;4950037;27;101386;-71
2024/04/05 09:47:52;;;;;;;;;;;;;;;29.79;43.83;100560.25;4919151;27;98521;-71
2024/04/05 09:50:21;;;;;;;;;;;;;;;29.05;44.84;100556.09;4932128;27;99789;-70
2024/04/05 09:52:47;;;;;;;;;;;;;;;28.48;45.19;100557.75;4954386;27;98310;-71
2024/04/05 09:55:16;;;;;;;;;;;;;;;27.93;45.63;100564.06;4938377;28;98653;-71
2024/04/05 09:57:43;;;;;;;;;;;;;;;27.37;45.92;100576.94;4942389;27;98360;-70
2024/04/05 10:00:14;;;;;;;;;;;;;;;26.89;46.19;100573.19;4949013;27;100023;-70
2024/04/05 10:02:46;;;;;;;;;;;;;;;26.44;46.31;100566.59;4932791;27;100382;-71
2024/04/05 10:05:28;;;;;;;;;;;;;;;26.11;46.43;100572.81;4954781;27;99603;-71
2024/04/05 10:07:55;;;;;;;;;;;;;;;25.97;46.35;100578.88;4935684;27;98678;-71
2024/04/05 10:10:32;;;;;;;;;;;;;;;27.05;45.02;100565.47;4951982;28;99611;-71
2024/04/05 10:13:12;;;;;;;;;;;;;;;29.49;42.25;100565.31;4922957;28;98312;-71
2024/04/05 10:15:39;;;;;;;;;;;;;;;30.98;41.36;100564.44;4946963;27;98086;-72
2024/04/05 10:18:08;;;;;;;;;;;;;;;31.89;40.85;100557.16;4934663;27;99635;-71
2024/04/05 10:20:35;;;;;;;;;;;;;;;32.96;40.26;100561.66;4915712;28;98277;-72
2024/04/05 10:23:03;;;;;;;;;;;;;;;33.38;40.42;100565.06;4933219;28;100406;-72
2024/04/05 10:25:30;;;;;;;;;;;;;;;33.37;40.83;100564.28;4953656;27;99646;-72
2024/04/05 10:27:56;;;;;;;;;;;;;;;32.68;42.43;100566.34;4940034;27;99257;-71
2024/04/05 10:30:22;;;;;;;;;;;;;;;33.76;41.27;100562.94;4938314;27;99950;-72
2024/04/05 10:32:58;;;;;;;;;;;;;;;32.84;42.10;100570.53;4936064;27;98450;-71
2024/04/05 10:35:26;;;;;;;;;;;;;;;32.16;42.90;100558.09;4954330;27;98292;-72
2024/04/05 10:37:59;;;;;;;;;;;;;;;33.23;41.58;100542.16;4922479;27;99499;-71
2024/04/05 10:40:28;;;;;;;;;;;;;;;32.98;41.90;100529.31;4936630;27;98490;-71
2024/04/05 10:42:55;;;;;;;;;;;;;;;32.80;42.57;100528.72;4940705;27;99253;-71
2024/04/05 10:45:22;;;;;;;;;;;;;;;33.64;41.44;100527.19;4934846;28;98357;-71
2024/04/05 10:47:52;;;;;;;;;;;;;;;34.17;41.11;100512.31;4917571;27;98498;-71
2024/04/05 10:50:19;;;;;;;;;;;;;;;33.77;41.57;100503.03;4935974;27;98272;-71
2024/04/05 10:52:52;;;;;;;;;;;;;;;33.92;41.52;100498.78;4934995;27;100019;-71
2024/04/05 10:55:19;;;;;;;;;;;;;;;33.50;42.41;100505.06;4950729;27;98203;-72
2024/04/05 10:57:46;;;;;;;;;;;;;;;33.44;42.50;100513.09;4937039;27;98735;-71
2024/04/05 11:00:13;;;;;;;;;;;;;;;33.02;42.94;100512.53;4923349;27;98329;-71
2024/04/05 11:02:42;;;;;;;;;;;;;;;33.53;42.24;100510.59;4933615;27;99956;-72
2024/04/05 11:05:13;;;;;;;;;;;;;;;34.43;41.29;100521.03;4922367;27;98548;-71
2024/04/05 11:07:40;;;;;;;;;;;;;;;34.63;41.34;100521.06;4939406;27;98188;-71
2024/04/05 11:10:34;;;;;;;;;;;;;;;35.05;41.28;100516.56;4940569;27;99778;-72
2024/04/05 11:13:01;;;;;;;;;;;;;;;35.59;40.79;100526.53;4949214;27;100546;-71
2024/04/05 11:15:27;;;;;;;;;;;;;;;36.04;40.84;100526.63;4951552;27;98610;-72
2024/04/05 11:18:03;;;;;;;;;;;;;;;35.70;41.01;100524.28;4938934;27;98129;-72
2024/04/05 11:20:31;;;;;;;;;;;;;;;35.73;41.30;100500.97;4935134;27;98291;-72
2024/04/05 11:23:03;;;;;;;;;;;;;;;35.69;41.21;100505.88;4923110;28;99865;-72
2024/04/05 11:25:30;;;;;;;;;;;;;;;36.05;40.82;100493.75;4919117;27;103295;-72
2024/04/05 11:27:56;;;;;;;;;;;;;;;36.16;40.95;100491.47;4922187;27;99713;-72
2024/04/05 11:30:22;;;;;;;;;;;;;;;35.11;42.14;100477.66;4933886;27;98182;-71
2024/04/05 11:32:49;;;;;;;;;;;;;;;35.99;41.18;100464.69;4936620;27;98233;-72
2024/04/05 11:35:15;;;;;;;;;;;;;;;36.06;41.19;100462.47;4942659;27;99001;-72
2024/04/05 11:37:45;;;;;;;;;;;;;;;35.72;41.81;100454.53;4935707;28;98770;-71
2024/04/05 11:40:12;;;;;;;;;;;;;;;35.65;41.81;100455.53;4939756;27;98577;-71
2024/04/05 11:42:39;;;;;;;;;;;;;;;34.27;43.21;100459.41;4922451;28;98818;-72
2024/04/05 11:45:06;;;;;;;;;;;;;;;33.64;44.05;100448.97;4937903;27;98296;-71
2024/04/05 11:47:36;;;;;;;;;;;;;;;33.53;43.18;100440.00;4936248;27;98153;-71
2024/04/05 11:50:03;;;;;;;;;;;;;;;33.77;42.87;100433.16;4950720;27;98217;-71
2024/04/05 11:52:31;;;;;;;;;;;;;;;33.56;42.86;100434.31;4954797;27;99469;-71
2024/04/05 11:54:58;;;;;;;;;;;;;;;33.86;42.67;100438.19;4939009;28;98183;-71
2024/04/05 11:57:25;;;;;;;;;;;;;;;34.18;42.42;100432.00;4927025;27;98915;-71
2024/04/05 11:59:51;;;;;;;;;;;;;;;34.44;42.00;100427.50;4943787;27;98537;-71
2024/04/05 12:02:18;;;;;;;;;;;;;;;34.66;42.10;100430.63;4934105;27;99553;-72
2024/04/05 12:04:46;;;;;;;;;;;;;;;34.85;42.06;100426.22;4925230;27;98196;-71
2024/04/05 12:07:12;;;;;;;;;;;;;;;35.03;41.70;100417.44;4950436;27;98272;-72
2024/04/05 12:09:38;;;;;;;;;;;;;;;35.27;41.42;100412.47;4934156;28;98278;-69
2024/04/05 12:12:05;;;;;;;;;;;;;;;35.25;41.82;100407.28;4935428;27;98092;-71
2024/04/05 12:14:33;;;;;;;;;;;;;;;35.56;41.63;100412.53;4933253;27;98274;-71
2024/04/05 12:17:00;;;;;;;;;;;;;;;35.86;41.35;100400.13;4930428;27;98199;-71
2024/04/05 12:19:26;;;;;;;;;;;;;;;35.11;42.20;100383.22;4935219;27;99672;-71
2024/04/05 12:21:53;;;;;;;;;;;;;;;35.17;42.11;100378.69;4912826;28;98245;-71
2024/04/05 12:24:20;;;;;;;;;;;;;;;35.26;41.79;100374.47;4935674;27;98242;-71
2024/04/05 12:26:47;;;;;;;;;;;;;;;35.33;41.69;100361.09;4932239;28;98301;-70
2024/04/05 12:29:13;;;;;;;;;;;;;;;35.36;42.02;100360.19;4941382;27;98034;-70
2024/04/05 12:31:43;;;;;;;;;;;;;;;35.20;41.97;100362.22;4928742;28;99007;-70
2024/04/05 12:34:09;;;;;;;;;;;;;;;35.04;42.28;100360.22;4951861;27;98208;-71
2024/04/05 12:36:35;;;;;;;;;;;;;;;34.83;42.23;100356.69;4930475;27;100500;-71
2024/04/05 12:39:07;;;;;;;;;;;;;;;34.89;42.41;100359.75;4936553;28;123348;-70